Terminal Aerodrome Forecast
Issued by NWS El Paso, TX

Home | Current Version | Previous Version | Text Only | Print | Product List | Glossary On
Versions: 1 2 3 4 5 6 7 8 9 10
520
FTUS44 KEPZ 230537
TAFELP
TAF
KELP 230537Z 2306/2406 11012KT P6SM SKC
     FM231700 15010G18KT P6SM SKC
     FM232000 16007KT P6SM SKC=

USA.gov is the U.S. government's official web portal to all federal, state and local government web resources and services.